Terminal Aerodrome Forecast
Issued by NWS

Home | Current Version | Previous Version | Text Only | Print | Product List | Glossary On
Versions: 1 2 3 4 5 6 7 8 9 10 11 12 13 14 15 16 17 18 19 20 21 22 23 24 25 26 27 28 29
000
FTUS41 KOKX 222331
TAFSWF
TAF
KSWF 222331Z 2300/2406 21005KT P6SM SCT050 BKN100
     FM230300 21004KT P6SM SCT050 BKN100
     FM230800 00000KT 2SM BR SCT004 BKN100
     FM231000 00000KT 2SM BR VCSH SCT004 BKN100
     FM231200 23004KT P6SM VCSH SCT004 BKN100
     FM231500 24009KT P6SM VCSH SCT020 BKN100
     FM231900 24011KT P6SM VCTS SCT020CB BKN045
     FM240000 25008KT 3SM SHRA VCTS SCT020CB BKN045
     FM240500 26007KT 3SM SHRA BR VCTS SCT014CB BKN045
      AMD NOT SKED=

USA.gov is the U.S. government's official web portal to all federal, state and local government web resources and services.